State Line, PA

11:38 PM EST on January 17, 2017 (GMT -0500)
State Line | | Change Station

Elev 661 ft 39.74 °N, 77.72 °W | Updated 7 seconds ago

Overcast
Overcast
38.8 °F
Feels Like 39 °F
N
0.0
Wind Variable Wind from NNW
Gusts 1.0 mph

Today
High -- | Low -- °F
--% Chance of Precip.
Yesterday
High -- | Low -- °F
Precip. -- in
Pressure 29.89 in
Visibility 2.5 miles
Clouds Overcast 300 ft
Windchill 39 °F
Dew Point 38 °F
Humidity 98%
Rainfall 0.15 in
Snow Depth Not available.
7:29 AM 5:13 PM
Waning Gibbous, 67% visible
SPECI KHGR 180431Z AUTO 33003KT 2 1/2SM BR OVC003 04/03 A2989 RMK AO2 CIG 002V006 T00440033
Pressure 29.89 in
Visibility 2.5 miles
Clouds Overcast 300 ft
Windchill 39 °F
Dew Point 38 °F
Humidity 98%
Rainfall 0.15 in
Snow Depth Not available.
7:29 AM 5:13 PM
Waning Gibbous, 67% visible
SPECI KHGR 180431Z AUTO 33003KT 2 1/2SM BR OVC003 04/03 A2989 RMK AO2 CIG 002V006 T00440033

Get Your Daily Forecast Email!

Thanks for signing up!

Be on the lookout for a verification email in your inbox.

You'll start receiving the daily forecast at 8 AM.

×

10-Day Weather Forecast

Almanac

Astronomy

Jan. 17, 2017 Rise Set
Actual Time
Civil Twilight
Nautical Twilight
Astronomical Twilight
Moon
Length of Visible Light
Length of Day
Tomorrow will be .
, % of the Moon is Illuminated

Today's Extremes

State Highs State Lows

Community

WunderPhotos

Upload Photos

1,962,540 photos uploaded!

WunderBlog® & News

Nearby

Air Quality

  Air Quality AQ Index Pollutant
Not available.

Snow Depth

Station Depth Elevation

Earthquake Activity

City Distance Mag. Time & Date
Minimum magnitude displayed is 2.5.

Coastal Water Temperatures

Place Temperature

Stations

Nearby Weather Stations

Station Location Temp. Windchill Dew Point Humidity Wind Precip. Elev Updated Type
                   

Watches & Warnings

Dense Fog Advisory
Issued: 8:08 PM EST Jan. 17, 2017 – National Weather Service

... Dense fog advisory in effect until 6 am EST Wednesday...

The National Weather Service in State College has issued a dense
fog advisory... which is in effect until 6 am EST Wednesday.

* Timing... this evening through early Wednesday morning.

* Impacts... greatly reduced visibilities could cause travel
problems.

Precautionary/preparedness actions...

Motorists are advised to slow down... use low beam headlights and
keep a safe following distance from the vehicle in front of you.
Consider allowing extra time to reach your destination. Go to
weather.Gov/fog for more information on fog safety.





Small Craft Advisory
Issued: 6:15 PM EST Jan. 17, 2017 – National Weather Service

... Small Craft Advisory remains in effect from 7 am to 6 PM EST
Wednesday...

* winds... 18 to 33 knots within the Small Craft Advisory.

Precautionary/preparedness actions...

A Small Craft Advisory means winds of 18 to 33 knots are imminent
or occurring. Boaters operating smaller vessels should avoid
navigating in these conditions.